sensor_id;sensor_type;location;lat;lon;timestamp;pressure;altitude;pressure_sealevel;temperature;humidity
70976;BME280;58635;51.198;6.010;2023-05-20T00:01:51;102103.44;;;18.45;37.74
70976;BME280;58635;51.198;6.010;2023-05-20T00:04:17;102098.44;;;18.44;38.13
70976;BME280;58635;51.198;6.010;2023-05-20T00:06:43;102097.03;;;18.41;38.09
70976;BME280;58635;51.198;6.010;2023-05-20T00:09:08;102098.28;;;18.38;38.15
70976;BME280;58635;51.198;6.010;2023-05-20T00:11:34;102090.63;;;18.37;38.57
70976;BME280;58635;51.198;6.010;2023-05-20T00:13:59;102098.72;;;18.35;38.60
70976;BME280;58635;51.198;6.010;2023-05-20T00:16:24;102095.69;;;18.32;38.75
70976;BME280;58635;51.198;6.010;2023-05-20T00:18:50;102098.53;;;18.30;38.53
70976;BME280;58635;51.198;6.010;2023-05-20T00:21:15;102100.78;;;18.27;38.71
70976;BME280;58635;51.198;6.010;2023-05-20T00:23:40;102102.81;;;18.25;38.88
70976;BME280;58635;51.198;6.010;2023-05-20T00:26:06;102107.66;;;18.21;38.69
70976;BME280;58635;51.198;6.010;2023-05-20T00:28:31;102111.50;;;18.19;39.23
70976;BME280;58635;51.198;6.010;2023-05-20T00:30:56;102099.63;;;18.16;39.14
70976;BME280;58635;51.198;6.010;2023-05-20T00:33:22;102098.25;;;18.14;39.10
70976;BME280;58635;51.198;6.010;2023-05-20T00:35:47;102096.03;;;18.10;38.89
70976;BME280;58635;51.198;6.010;2023-05-20T00:38:13;102099.88;;;18.08;39.25
70976;BME280;58635;51.198;6.010;2023-05-20T00:40:38;102104.53;;;18.06;39.26
70976;BME280;58635;51.198;6.010;2023-05-20T00:43:04;102104.38;;;18.01;39.27
70976;BME280;58635;51.198;6.010;2023-05-20T00:45:29;102108.00;;;18.00;39.43
70976;BME280;58635;51.198;6.010;2023-05-20T00:47:55;102103.97;;;17.97;39.35
70976;BME280;58635;51.198;6.010;2023-05-20T00:50:23;102100.75;;;17.95;39.49
70976;BME280;58635;51.198;6.010;2023-05-20T00:52:49;102100.38;;;17.92;39.53
70976;BME280;58635;51.198;6.010;2023-05-20T00:55:15;102103.44;;;17.89;39.67
70976;BME280;58635;51.198;6.010;2023-05-20T00:57:41;102098.59;;;17.86;39.76
70976;BME280;58635;51.198;6.010;2023-05-20T01:00:07;102095.59;;;17.82;39.96
70976;BME280;58635;51.198;6.010;2023-05-20T01:02:34;102096.81;;;17.79;39.70
70976;BME280;58635;51.198;6.010;2023-05-20T01:04:59;102095.63;;;17.75;39.88
70976;BME280;58635;51.198;6.010;2023-05-20T01:07:25;102096.03;;;17.72;40.00
70976;BME280;58635;51.198;6.010;2023-05-20T01:09:51;102096.66;;;17.68;40.20
70976;BME280;58635;51.198;6.010;2023-05-20T01:12:25;102096.88;;;17.66;40.33
70976;BME280;58635;51.198;6.010;2023-05-20T01:14:58;102090.41;;;17.62;40.39
70976;BME280;58635;51.198;6.010;2023-05-20T01:17:26;102095.28;;;17.59;40.56
70976;BME280;58635;51.198;6.010;2023-05-20T01:19:53;102097.50;;;17.55;40.73
70976;BME280;58635;51.198;6.010;2023-05-20T01:22:27;102091.06;;;17.51;40.71
70976;BME280;58635;51.198;6.010;2023-05-20T01:24:52;102094.31;;;17.40;40.68
70976;BME280;58635;51.198;6.010;2023-05-20T01:27:19;102094.31;;;17.40;40.87
70976;BME280;58635;51.198;6.010;2023-05-20T01:29:45;102094.75;;;17.37;41.06
70976;BME280;58635;51.198;6.010;2023-05-20T01:32:18;102101.19;;;17.34;40.77
70976;BME280;58635;51.198;6.010;2023-05-20T01:34:46;102099.00;;;17.31;41.18
70976;BME280;58635;51.198;6.010;2023-05-20T01:37:12;102098.41;;;17.29;41.07
70976;BME280;58635;51.198;6.010;2023-05-20T01:39:39;102095.38;;;17.25;41.25
70976;BME280;58635;51.198;6.010;2023-05-20T01:42:09;102092.38;;;17.22;41.33
70976;BME280;58635;51.198;6.010;2023-05-20T01:44:36;102097.81;;;17.20;41.32
70976;BME280;58635;51.198;6.010;2023-05-20T01:47:01;102087.97;;;17.16;41.31
70976;BME280;58635;51.198;6.010;2023-05-20T01:49:27;102089.19;;;17.13;41.44
70976;BME280;58635;51.198;6.010;2023-05-20T01:51:53;102088.59;;;17.11;41.56
70976;BME280;58635;51.198;6.010;2023-05-20T01:54:18;102086.38;;;17.08;41.77
70976;BME280;58635;51.198;6.010;2023-05-20T01:56:45;102080.75;;;17.05;41.78
70976;BME280;58635;51.198;6.010;2023-05-20T01:59:10;102076.72;;;17.02;41.98
70976;BME280;58635;51.198;6.010;2023-05-20T02:01:36;102084.78;;;17.01;41.80
70976;BME280;58635;51.198;6.010;2023-05-20T02:04:01;102075.53;;;16.98;41.99
70976;BME280;58635;51.198;6.010;2023-05-20T02:06:27;102075.16;;;16.94;42.22
70976;BME280;58635;51.198;6.010;2023-05-20T02:08:52;102078.16;;;16.91;42.35
70976;BME280;58635;51.198;6.010;2023-05-20T02:11:17;102072.53;;;16.88;42.30
70976;BME280;58635;51.198;6.010;2023-05-20T02:13:43;102073.75;;;16.85;42.42
70976;BME280;58635;51.198;6.010;2023-05-20T02:16:08;102076.78;;;16.82;42.60
70976;BME280;58635;51.198;6.010;2023-05-20T02:18:33;102072.75;;;16.80;42.56
70976;BME280;58635;51.198;6.010;2023-05-20T02:21:02;102079.78;;;16.79;42.83
70976;BME280;58635;51.198;6.010;2023-05-20T02:23:28;102080.41;;;16.75;42.81
70976;BME280;58635;51.198;6.010;2023-05-20T02:25:54;102080.00;;;16.71;42.95
70976;BME280;58635;51.198;6.010;2023-05-20T02:28:19;102078.56;;;16.69;43.07
70976;BME280;58635;51.198;6.010;2023-05-20T02:30:44;102081.38;;;16.67;42.92
70976;BME280;58635;51.198;6.010;2023-05-20T02:33:11;102072.13;;;16.64;43.15
70976;BME280;58635;51.198;6.010;2023-05-20T02:35:36;102068.31;;;16.60;43.27
70976;BME280;58635;51.198;6.010;2023-05-20T02:38:02;102072.31;;;16.56;43.46
70976;BME280;58635;51.198;6.010;2023-05-20T02:40:27;102065.31;;;16.50;43.62
70976;BME280;58635;51.198;6.010;2023-05-20T02:42:53;102070.31;;;16.45;43.59
70976;BME280;58635;51.198;6.010;2023-05-20T02:45:18;102074.94;;;16.43;43.70
70976;BME280;58635;51.198;6.010;2023-05-20T02:47:43;102078.97;;;16.39;43.80
70976;BME280;58635;51.198;6.010;2023-05-20T02:50:09;102074.34;;;16.34;44.18
70976;BME280;58635;51.198;6.010;2023-05-20T02:52:34;102071.31;;;16.31;44.10
70976;BME280;58635;51.198;6.010;2023-05-20T02:55:01;102069.91;;;16.28;44.20
70976;BME280;58635;51.198;6.010;2023-05-20T02:57:26;102067.72;;;16.25;44.37
70976;BME280;58635;51.198;6.010;2023-05-20T02:59:53;102070.53;;;16.24;44.42
70976;BME280;58635;51.198;6.010;2023-05-20T03:02:19;102061.25;;;16.21;44.51
70976;BME280;58635;51.198;6.010;2023-05-20T03:04:44;102061.47;;;16.20;44.58
70976;BME280;58635;51.198;6.010;2023-05-20T03:07:10;102065.69;;;16.21;44.55
70976;BME280;58635;51.198;6.010;2023-05-20T03:09:36;102061.47;;;16.20;44.56
70976;BME280;58635;51.198;6.010;2023-05-20T03:12:02;102061.66;;;16.18;44.56
70976;BME280;58635;51.198;6.010;2023-05-20T03:14:27;102061.66;;;16.18;44.90
70976;BME280;58635;51.198;6.010;2023-05-20T03:16:53;102062.88;;;16.16;44.86
70976;BME280;58635;51.198;6.010;2023-05-20T03:19:21;102065.69;;;16.14;44.89
70976;BME280;58635;51.198;6.010;2023-05-20T03:21:47;102060.66;;;16.13;45.05
70976;BME280;58635;51.198;6.010;2023-05-20T03:24:12;102064.28;;;16.12;45.00
70976;BME280;58635;51.198;6.010;2023-05-20T03:26:37;102064.44;;;16.10;44.91
70976;BME280;58635;51.198;6.010;2023-05-20T03:29:07;102053.22;;;16.09;45.34
70976;BME280;58635;51.198;6.010;2023-05-20T03:31:33;102068.06;;;16.09;45.31
70976;BME280;58635;51.198;6.010;2023-05-20T03:33:58;102070.88;;;16.07;45.44
70976;BME280;58635;51.198;6.010;2023-05-20T03:36:23;102057.22;;;16.05;45.54
70976;BME280;58635;51.198;6.010;2023-05-20T03:38:49;102056.44;;;16.05;45.56
70976;BME280;58635;51.198;6.010;2023-05-20T03:41:14;102055.63;;;16.04;45.65
70976;BME280;58635;51.198;6.010;2023-05-20T03:43:40;102046.19;;;16.03;45.75
70976;BME280;58635;51.198;6.010;2023-05-20T03:46:05;102041.19;;;16.02;45.82
70976;BME280;58635;51.198;6.010;2023-05-20T03:48:31;102038.56;;;16.02;45.88
70976;BME280;58635;51.198;6.010;2023-05-20T03:50:56;102042.56;;;15.98;46.04
70976;BME280;58635;51.198;6.010;2023-05-20T03:53:21;102040.16;;;15.96;46.04
70976;BME280;58635;51.198;6.010;2023-05-20T03:55:47;102047.56;;;15.93;46.22
70976;BME280;58635;51.198;6.010;2023-05-20T03:58:13;102048.38;;;15.93;46.04
70976;BME280;58635;51.198;6.010;2023-05-20T04:00:39;102033.94;;;15.91;46.36
70976;BME280;58635;51.198;6.010;2023-05-20T04:03:05;102044.38;;;15.91;46.21
70976;BME280;58635;51.198;6.010;2023-05-20T04:05:30;102048.97;;;15.89;46.41
70976;BME280;58635;51.198;6.010;2023-05-20T04:07:56;102048.97;;;15.89;46.57
70976;BME280;58635;51.198;6.010;2023-05-20T04:10:22;102045.38;;;15.90;46.71
70976;BME280;58635;51.198;6.010;2023-05-20T04:12:48;102048.97;;;15.89;46.58
70976;BME280;58635;51.198;6.010;2023-05-20T04:15:13;102051.59;;;15.89;46.75
70976;BME280;58635;51.198;6.010;2023-05-20T04:17:39;102048.38;;;15.87;46.74
70976;BME280;58635;51.198;6.010;2023-05-20T04:20:06;102048.94;;;15.82;47.11
70976;BME280;58635;51.198;6.010;2023-05-20T04:22:33;102055.16;;;15.81;47.13
70976;BME280;58635;51.198;6.010;2023-05-20T04:24:59;102065.41;;;15.83;47.19
70976;BME280;58635;51.198;6.010;2023-05-20T04:27:24;102059.78;;;15.86;47.12
70976;BME280;58635;51.198;6.010;2023-05-20T04:29:50;102057.81;;;15.88;47.09
70976;BME280;58635;51.198;6.010;2023-05-20T04:32:17;102056.59;;;15.90;47.07
70976;BME280;58635;51.198;6.010;2023-05-20T04:34:43;102053.59;;;15.93;47.15
70976;BME280;58635;51.198;6.010;2023-05-20T04:37:10;102052.38;;;15.96;47.12
70976;BME280;58635;51.198;6.010;2023-05-20T04:39:35;102052.00;;;15.99;47.22
70976;BME280;58635;51.198;6.010;2023-05-20T04:42:02;102050.81;;;16.01;47.19
70976;BME280;58635;51.198;6.010;2023-05-20T04:44:27;102047.38;;;16.07;47.15
70976;BME280;58635;51.198;6.010;2023-05-20T04:46:54;102045.81;;;16.13;47.00
70976;BME280;58635;51.198;6.010;2023-05-20T04:49:20;102053.63;;;16.20;46.97
70976;BME280;58635;51.198;6.010;2023-05-20T04:51:45;102052.66;;;16.27;46.92
70976;BME280;58635;51.198;6.010;2023-05-20T04:54:14;102047.44;;;16.34;46.87
70976;BME280;58635;51.198;6.010;2023-05-20T04:56:42;102040.38;;;16.41;46.97
70976;BME280;58635;51.198;6.010;2023-05-20T04:59:07;102034.19;;;16.49;46.78
70976;BME280;58635;51.198;6.010;2023-05-20T05:01:35;102032.75;;;16.59;46.65
70976;BME280;58635;51.198;6.010;2023-05-20T05:04:01;102034.16;;;16.69;46.55
70976;BME280;58635;51.198;6.010;2023-05-20T05:06:26;102035.56;;;16.78;46.57
70976;BME280;58635;51.198;6.010;2023-05-20T05:08:52;102033.13;;;16.89;46.26
70976;BME280;58635;51.198;6.010;2023-05-20T05:11:17;102027.28;;;17.01;46.19
70976;BME280;58635;51.198;6.010;2023-05-20T05:13:42;102026.66;;;17.12;46.05
70976;BME280;58635;51.198;6.010;2023-05-20T05:16:08;102011.31;;;17.22;45.99
70976;BME280;58635;51.198;6.010;2023-05-20T05:18:33;102021.34;;;17.32;45.69
70976;BME280;58635;51.198;6.010;2023-05-20T05:21:00;102022.91;;;17.46;45.53
70976;BME280;58635;51.198;6.010;2023-05-20T05:23:25;102027.84;;;17.61;45.66
70976;BME280;58635;51.198;6.010;2023-05-20T05:25:51;102021.75;;;17.73;45.28
70976;BME280;58635;51.198;6.010;2023-05-20T05:28:17;102030.94;;;17.89;44.80
70976;BME280;58635;51.198;6.010;2023-05-20T05:30:42;102036.91;;;18.03;44.79
70976;BME280;58635;51.198;6.010;2023-05-20T05:33:08;102038.19;;;18.19;44.38
70976;BME280;58635;51.198;6.010;2023-05-20T05:35:33;102032.41;;;18.35;44.09
70976;BME280;58635;51.198;6.010;2023-05-20T05:37:58;102041.34;;;18.52;43.63
70976;BME280;58635;51.198;6.010;2023-05-20T05:40:24;102038.41;;;18.67;43.44
70976;BME280;58635;51.198;6.010;2023-05-20T05:42:50;102034.03;;;18.79;43.32
70976;BME280;58635;51.198;6.010;2023-05-20T05:45:15;102032.88;;;18.93;43.50
70976;BME280;58635;51.198;6.010;2023-05-20T05:47:41;102027.13;;;19.03;42.98
70976;BME280;58635;51.198;6.010;2023-05-20T05:50:07;102032.69;;;19.13;42.90
70976;BME280;58635;51.198;6.010;2023-05-20T05:52:34;102030.91;;;19.25;42.68
70976;BME280;58635;51.198;6.010;2023-05-20T05:54:59;102023.78;;;19.33;42.28
70976;BME280;58635;51.198;6.010;2023-05-20T05:57:25;102017.84;;;19.37;42.66
70976;BME280;58635;51.198;6.010;2023-05-20T05:59:50;102024.84;;;19.43;42.22
70976;BME280;58635;51.198;6.010;2023-05-20T06:02:15;102017.63;;;19.57;42.16
70976;BME280;58635;51.198;6.010;2023-05-20T06:04:41;102031.38;;;19.71;42.11
70976;BME280;58635;51.198;6.010;2023-05-20T06:07:07;102025.13;;;19.83;41.65
70976;BME280;58635;51.198;6.010;2023-05-20T06:09:32;102015.69;;;19.94;41.56
70976;BME280;58635;51.198;6.010;2023-05-20T06:11:58;102020.94;;;20.06;41.19
70976;BME280;58635;51.198;6.010;2023-05-20T06:14:23;102021.53;;;20.20;41.04
70976;BME280;58635;51.198;6.010;2023-05-20T06:16:49;102016.63;;;20.35;40.86
70976;BME280;58635;51.198;6.010;2023-05-20T06:19:14;102014.41;;;20.50;40.53
70976;BME280;58635;51.198;6.010;2023-05-20T06:21:39;102018.63;;;20.63;40.10
70976;BME280;58635;51.198;6.010;2023-05-20T06:24:05;102009.56;;;20.70;39.99
70976;BME280;58635;51.198;6.010;2023-05-20T06:26:30;102011.28;;;20.77;40.03
70976;BME280;58635;51.198;6.010;2023-05-20T06:28:56;102007.81;;;20.88;40.03
70976;BME280;58635;51.198;6.010;2023-05-20T06:31:21;102007.00;;;20.99;39.59
70976;BME280;58635;51.198;6.010;2023-05-20T06:33:47;102003.91;;;21.02;39.32
70976;BME280;58635;51.198;6.010;2023-05-20T06:36:12;102005.72;;;21.01;38.95
70976;BME280;58635;51.198;6.010;2023-05-20T06:38:38;101999.00;;;20.94;38.93
70976;BME280;58635;51.198;6.010;2023-05-20T06:41:03;101995.47;;;20.88;39.22
70976;BME280;58635;51.198;6.010;2023-05-20T06:43:28;101988.06;;;20.85;39.41
70976;BME280;58635;51.198;6.010;2023-05-20T06:45:54;102004.25;;;20.94;39.31
70976;BME280;58635;51.198;6.010;2023-05-20T06:48:19;101997.13;;;21.06;39.05
70976;BME280;58635;51.198;6.010;2023-05-20T06:50:45;102003.38;;;21.17;39.10
70976;BME280;58635;51.198;6.010;2023-05-20T06:53:10;101997.75;;;21.25;38.71
70976;BME280;58635;51.198;6.010;2023-05-20T06:55:38;101998.69;;;21.30;38.58
70976;BME280;58635;51.198;6.010;2023-05-20T06:58:04;101991.31;;;21.44;38.44
70976;BME280;58635;51.198;6.010;2023-05-20T07:00:29;101986.22;;;21.54;38.14
70976;BME280;58635;51.198;6.010;2023-05-20T07:02:55;101984.78;;;21.64;37.92
70976;BME280;58635;51.198;6.010;2023-05-20T07:05:20;101984.03;;;21.80;37.90
70976;BME280;58635;51.198;6.010;2023-05-20T07:07:46;101982.97;;;21.98;37.81
70976;BME280;58635;51.198;6.010;2023-05-20T07:10:11;101981.56;;;22.07;37.43
70976;BME280;58635;51.198;6.010;2023-05-20T07:12:36;101985.41;;;22.16;37.20
70976;BME280;58635;51.198;6.010;2023-05-20T07:15:02;101977.88;;;22.25;37.09
70976;BME280;58635;51.198;6.010;2023-05-20T07:17:27;101987.84;;;22.39;36.89
70976;BME280;58635;51.198;6.010;2023-05-20T07:19:54;101977.50;;;22.55;36.59
70976;BME280;58635;51.198;6.010;2023-05-20T07:22:20;101976.88;;;22.69;36.53
70976;BME280;58635;51.198;6.010;2023-05-20T07:24:46;101968.84;;;22.81;36.11
70976;BME280;58635;51.198;6.010;2023-05-20T07:27:11;101976.13;;;22.91;35.89
70976;BME280;58635;51.198;6.010;2023-05-20T07:29:37;101957.81;;;23.06;35.57
70976;BME280;58635;51.198;6.010;2023-05-20T07:32:03;101966.63;;;23.17;35.50
70976;BME280;58635;51.198;6.010;2023-05-20T07:34:29;101968.28;;;23.23;34.95
70976;BME280;58635;51.198;6.010;2023-05-20T07:36:56;101969.88;;;23.24;35.13
70976;BME280;58635;51.198;6.010;2023-05-20T07:39:22;101957.47;;;23.24;34.81
70976;BME280;58635;51.198;6.010;2023-05-20T07:41:48;101960.38;;;23.23;34.81
70976;BME280;58635;51.198;6.010;2023-05-20T07:44:14;101959.81;;;23.21;34.97
70976;BME280;58635;51.198;6.010;2023-05-20T07:46:39;101958.22;;;23.20;34.83
70976;BME280;58635;51.198;6.010;2023-05-20T07:49:06;101955.03;;;23.18;34.86
70976;BME280;58635;51.198;6.010;2023-05-20T07:51:32;101949.50;;;23.19;35.08
70976;BME280;58635;51.198;6.010;2023-05-20T07:53:57;101950.66;;;23.28;35.04
70976;BME280;58635;51.198;6.010;2023-05-20T07:56:23;101958.66;;;23.39;34.91
70976;BME280;58635;51.198;6.010;2023-05-20T07:58:51;101957.69;;;23.45;34.71
70976;BME280;58635;51.198;6.010;2023-05-20T08:01:17;101959.25;;;23.46;34.80
70976;BME280;58635;51.198;6.010;2023-05-20T08:03:43;101944.66;;;23.38;34.77
70976;BME280;58635;51.198;6.010;2023-05-20T08:06:08;101936.66;;;23.28;34.59
70976;BME280;58635;51.198;6.010;2023-05-20T08:08:34;101931.03;;;23.19;34.92
70976;BME280;58635;51.198;6.010;2023-05-20T08:11:00;101941.50;;;23.09;35.18
70976;BME280;58635;51.198;6.010;2023-05-20T08:13:26;101932.72;;;23.03;34.94
70976;BME280;58635;51.198;6.010;2023-05-20T08:15:53;101936.41;;;23.02;35.19
70976;BME280;58635;51.198;6.010;2023-05-20T08:18:19;101940.34;;;23.00;35.05
70976;BME280;58635;51.198;6.010;2023-05-20T08:20:44;101932.59;;;22.93;35.63
70976;BME280;58635;51.198;6.010;2023-05-20T08:23:10;101931.81;;;22.93;35.58
70976;BME280;58635;51.198;6.010;2023-05-20T08:25:35;101928.19;;;22.99;35.68
70976;BME280;58635;51.198;6.010;2023-05-20T08:28:02;101919.34;;;23.10;35.64
70976;BME280;58635;51.198;6.010;2023-05-20T08:30:29;101925.69;;;23.14;35.35
70976;BME280;58635;51.198;6.010;2023-05-20T08:32:55;101936.22;;;23.09;35.36
70976;BME280;58635;51.198;6.010;2023-05-20T08:35:24;101932.97;;;23.02;35.41
70976;BME280;58635;51.198;6.010;2023-05-20T08:37:49;101931.13;;;23.02;35.46
70976;BME280;58635;51.198;6.010;2023-05-20T08:40:15;101924.03;;;23.08;34.75
70976;BME280;58635;51.198;6.010;2023-05-20T08:42:43;101919.81;;;23.07;34.88
70976;BME280;58635;51.198;6.010;2023-05-20T08:45:16;101916.94;;;23.09;35.22
70976;BME280;58635;51.198;6.010;2023-05-20T08:47:41;101920.47;;;23.19;34.73
70976;BME280;58635;51.198;6.010;2023-05-20T08:50:09;101921.81;;;23.22;35.02
70976;BME280;58635;51.198;6.010;2023-05-20T08:52:37;101920.16;;;23.16;34.78
70976;BME280;58635;51.198;6.010;2023-05-20T08:55:04;101911.75;;;23.19;34.64
70976;BME280;58635;51.198;6.010;2023-05-20T08:57:32;101912.97;;;23.38;34.70
70976;BME280;58635;51.198;6.010;2023-05-20T08:59:58;101920.84;;;23.60;34.15
70976;BME280;58635;51.198;6.010;2023-05-20T09:02:24;101913.38;;;23.89;34.19
70976;BME280;58635;51.198;6.010;2023-05-20T09:04:50;101915.16;;;24.20;33.79
70976;BME280;58635;51.198;6.010;2023-05-20T09:07:26;101922.38;;;24.35;33.28
70976;BME280;58635;51.198;6.010;2023-05-20T09:09:52;101909.94;;;24.31;33.40
70976;BME280;58635;51.198;6.010;2023-05-20T09:12:19;101910.97;;;24.30;33.45
70976;BME280;58635;51.198;6.010;2023-05-20T09:14:45;101909.44;;;24.34;33.45
70976;BME280;58635;51.198;6.010;2023-05-20T09:17:11;101909.75;;;24.42;33.08
70976;BME280;58635;51.198;6.010;2023-05-20T09:19:37;101906.03;;;24.43;32.99
70976;BME280;58635;51.198;6.010;2023-05-20T09:22:03;101913.97;;;24.43;32.91
70976;BME280;58635;51.198;6.010;2023-05-20T09:24:29;101913.19;;;24.43;32.68
70976;BME280;58635;51.198;6.010;2023-05-20T09:26:54;101920.06;;;24.44;32.88
70976;BME280;58635;51.198;6.010;2023-05-20T09:29:20;101906.03;;;24.48;32.92
70976;BME280;58635;51.198;6.010;2023-05-20T09:31:46;101901.06;;;24.52;32.91
70976;BME280;58635;51.198;6.010;2023-05-20T09:34:12;101895.22;;;24.55;33.26
70976;BME280;58635;51.198;6.010;2023-05-20T09:36:38;101898.72;;;24.66;33.35
70976;BME280;58635;51.198;6.010;2023-05-20T09:39:05;101904.81;;;24.82;32.68
70976;BME280;58635;51.198;6.010;2023-05-20T09:41:38;101901.69;;;24.90;32.85
70976;BME280;58635;51.198;6.010;2023-05-20T09:44:04;101891.88;;;24.95;32.94
70976;BME280;58635;51.198;6.010;2023-05-20T09:46:32;101888.75;;;25.03;32.91
70976;BME280;58635;51.198;6.010;2023-05-20T09:48:58;101893.53;;;25.01;32.85
70976;BME280;58635;51.198;6.010;2023-05-20T09:51:25;101886.31;;;24.92;32.64
70976;BME280;58635;51.198;6.010;2023-05-20T09:53:51;101888.97;;;24.87;33.30
70976;BME280;58635;51.198;6.010;2023-05-20T09:56:19;101892.16;;;24.89;33.06
70976;BME280;58635;51.198;6.010;2023-05-20T09:58:48;101886.06;;;24.88;32.84
70976;BME280;58635;51.198;6.010;2023-05-20T10:01:14;101894.78;;;24.89;32.90
70976;BME280;58635;51.198;6.010;2023-05-20T10:03:40;101889.75;;;24.92;32.96
70976;BME280;58635;51.198;6.010;2023-05-20T10:11:41;101883.94;;;24.90;33.29
70976;BME280;58635;51.198;6.010;2023-05-20T10:17:01;101875.75;;;24.92;33.43
70976;BME280;58635;51.198;6.010;2023-05-20T10:19:32;101883.16;;;24.90;33.39
70976;BME280;58635;51.198;6.010;2023-05-20T10:22:02;101870.97;;;24.89;33.33
70976;BME280;58635;51.198;6.010;2023-05-20T10:24:33;101868.59;;;24.97;33.75
70976;BME280;58635;51.198;6.010;2023-05-20T10:27:02;101874.19;;;25.01;33.50
70976;BME280;58635;51.198;6.010;2023-05-20T10:29:28;101870.44;;;24.92;33.77
70976;BME280;58635;51.198;6.010;2023-05-20T10:31:54;101876.78;;;24.86;33.83
70976;BME280;58635;51.198;6.010;2023-05-20T10:34:21;101876.78;;;24.81;33.69
70976;BME280;58635;51.198;6.010;2023-05-20T10:39:18;101871.75;;;24.94;33.89
70976;BME280;58635;51.198;6.010;2023-05-20T10:41:44;101854.09;;;25.15;33.71
70976;BME280;58635;51.198;6.010;2023-05-20T10:44:09;101861.75;;;25.27;33.67
70976;BME280;58635;51.198;6.010;2023-05-20T10:46:35;101851.16;;;25.37;33.35
70976;BME280;58635;51.198;6.010;2023-05-20T10:49:01;101859.66;;;25.34;33.81
70976;BME280;58635;51.198;6.010;2023-05-20T10:51:28;101863.09;;;25.34;33.47
70976;BME280;58635;51.198;6.010;2023-05-20T10:53:55;101873.66;;;25.40;33.37
70976;BME280;58635;51.198;6.010;2023-05-20T10:56:25;101859.63;;;25.39;33.05
70976;BME280;58635;51.198;6.010;2023-05-20T10:58:52;101854.06;;;25.41;33.29
70976;BME280;58635;51.198;6.010;2023-05-20T11:01:23;101846.13;;;25.46;33.41
70976;BME280;58635;51.198;6.010;2023-05-20T11:03:49;101851.13;;;25.52;33.20
70976;BME280;58635;51.198;6.010;2023-05-20T11:06:16;101850.59;;;25.55;33.56
70976;BME280;58635;51.198;6.010;2023-05-20T11:08:43;101845.59;;;25.49;33.26
70976;BME280;58635;51.198;6.010;2023-05-20T11:11:10;101861.22;;;25.50;33.64
70976;BME280;58635;51.198;6.010;2023-05-20T11:13:36;101858.28;;;25.52;33.59
70976;BME280;58635;51.198;6.010;2023-05-20T11:16:01;101855.91;;;25.60;33.12
70976;BME280;58635;51.198;6.010;2023-05-20T11:18:27;101857.75;;;25.60;33.37
70976;BME280;58635;51.198;6.010;2023-05-20T11:21:00;101851.41;;;25.51;32.88
70976;BME280;58635;51.198;6.010;2023-05-20T11:23:26;101842.66;;;25.45;32.84
70976;BME280;58635;51.198;6.010;2023-05-20T11:25:53;101848.22;;;25.49;33.26
70976;BME280;58635;51.198;6.010;2023-05-20T11:28:19;101849.53;;;25.61;33.29
70976;BME280;58635;51.198;6.010;2023-05-20T11:30:46;101852.19;;;25.77;32.63
70976;BME280;58635;51.198;6.010;2023-05-20T11:33:12;101841.81;;;25.85;32.82
70976;BME280;58635;51.198;6.010;2023-05-20T11:35:52;101833.81;;;26.01;32.11
70976;BME280;58635;51.198;6.010;2023-05-20T11:38:19;101828.41;;;26.21;32.03
70976;BME280;58635;51.198;6.010;2023-05-20T11:40:48;101829.38;;;26.45;31.76
70976;BME280;58635;51.198;6.010;2023-05-20T11:43:15;101822.03;;;26.71;31.52
70976;BME280;58635;51.198;6.010;2023-05-20T11:45:42;101814.16;;;26.95;31.56
70976;BME280;58635;51.198;6.010;2023-05-20T11:48:09;101824.09;;;27.19;31.33
70976;BME280;58635;51.198;6.010;2023-05-20T11:50:42;101829.25;;;27.34;30.93
70976;BME280;58635;51.198;6.010;2023-05-20T11:53:15;101823.78;;;27.25;31.00
70976;BME280;58635;51.198;6.010;2023-05-20T11:55:55;101819.91;;;27.13;30.97
70976;BME280;58635;51.198;6.010;2023-05-20T11:58:29;101827.38;;;27.05;31.07
70976;BME280;58635;51.198;6.010;2023-05-20T12:00:55;101815.69;;;27.06;31.08
70976;BME280;58635;51.198;6.010;2023-05-20T12:03:21;101812.66;;;27.18;31.14
70976;BME280;58635;51.198;6.010;2023-05-20T12:05:46;101807.56;;;27.22;30.95
70976;BME280;58635;51.198;6.010;2023-05-20T12:08:13;101810.19;;;27.27;31.00
70976;BME280;58635;51.198;6.010;2023-05-20T12:10:38;101802.81;;;27.24;31.29
70976;BME280;58635;51.198;6.010;2023-05-20T12:13:04;101802.03;;;27.18;30.98
70976;BME280;58635;51.198;6.010;2023-05-20T12:15:34;101810.94;;;27.03;31.28
70976;BME280;58635;51.198;6.010;2023-05-20T12:18:00;101806.47;;;26.94;31.14
70976;BME280;58635;51.198;6.010;2023-05-20T12:20:25;101808.34;;;26.93;31.53
70976;BME280;58635;51.198;6.010;2023-05-20T12:22:51;101807.84;;;26.86;31.32
70976;BME280;58635;51.198;6.010;2023-05-20T12:25:18;101803.88;;;26.89;31.49
70976;BME280;58635;51.198;6.010;2023-05-20T12:27:44;101805.38;;;27.00;31.41
70976;BME280;58635;51.198;6.010;2023-05-20T12:30:14;101807.72;;;27.06;30.97
70976;BME280;58635;51.198;6.010;2023-05-20T12:32:40;101806.06;;;27.16;31.09
70976;BME280;58635;51.198;6.010;2023-05-20T12:35:08;101802.09;;;27.13;31.04
70976;BME280;58635;51.198;6.010;2023-05-20T12:37:33;101805.69;;;26.93;31.27
70976;BME280;58635;51.198;6.010;2023-05-20T12:39:58;101802.13;;;26.74;31.51
70976;BME280;58635;51.198;6.010;2023-05-20T12:42:24;101802.88;;;26.79;31.65
70976;BME280;58635;51.198;6.010;2023-05-20T12:44:50;101799.31;;;26.94;31.47
70976;BME280;58635;51.198;6.010;2023-05-20T12:47:15;101801.84;;;27.09;31.33
70976;BME280;58635;51.198;6.010;2023-05-20T12:49:41;101801.56;;;27.11;31.02
70976;BME280;58635;51.198;6.010;2023-05-20T12:52:06;101812.03;;;27.02;31.15
70976;BME280;58635;51.198;6.010;2023-05-20T12:54:31;101806.19;;;26.95;31.19
70976;BME280;58635;51.198;6.010;2023-05-20T12:56:57;101793.06;;;26.80;31.65